createdAt,value
2018-05-24T00:02:03.991Z,1.62
2018-05-24T00:04:31.623Z,1.40
2018-05-24T00:06:59.211Z,1.58
2018-05-24T00:09:26.873Z,1.67
2018-05-24T00:11:55.769Z,1.80
2018-05-24T00:14:23.462Z,1.67
2018-05-24T00:16:51.884Z,1.60
2018-05-24T00:19:19.503Z,1.50
2018-05-24T00:21:47.129Z,1.70
2018-05-24T00:24:14.770Z,1.50
2018-05-24T00:26:43.129Z,1.60
2018-05-24T00:29:10.834Z,1.50
2018-05-24T00:31:38.443Z,1.67
2018-05-24T00:34:06.028Z,1.70
2018-05-24T00:36:33.650Z,1.70
2018-05-24T00:39:01.258Z,1.62
2018-05-24T00:41:28.939Z,1.75
2018-05-24T00:43:57.446Z,1.62
2018-05-24T00:46:25.415Z,1.70
2018-05-24T00:48:53.010Z,1.67
2018-05-24T00:51:20.610Z,1.55
2018-05-24T00:53:48.538Z,1.75
2018-05-24T00:56:16.159Z,1.70
2018-05-24T00:58:43.795Z,1.70
2018-05-24T01:01:11.423Z,1.95
2018-05-24T01:03:39.015Z,1.87
2018-05-24T01:06:06.639Z,1.67
2018-05-24T01:08:35.020Z,1.65
2018-05-24T01:11:03.396Z,1.57
2018-05-24T01:13:31.060Z,1.92
2018-05-24T01:15:59.468Z,1.77
2018-05-24T01:18:27.060Z,1.58
2018-05-24T01:20:54.658Z,1.70
2018-05-24T01:23:22.481Z,1.55
2018-05-24T01:25:50.103Z,1.80
2018-05-24T01:28:17.728Z,1.73
2018-05-24T01:30:45.359Z,1.77
2018-05-24T01:33:13.737Z,1.62
2018-05-24T01:35:41.340Z,1.70
2018-05-24T01:38:09.013Z,1.90
2018-05-24T01:40:36.605Z,1.80
2018-05-24T01:43:04.204Z,1.75
2018-05-24T01:45:32.887Z,1.77
2018-05-24T01:48:01.261Z,1.80
2018-05-24T01:50:28.872Z,1.73
2018-05-24T01:52:56.498Z,1.73
2018-05-24T01:55:24.854Z,1.80
2018-05-24T01:57:52.481Z,1.87
2018-05-24T02:00:20.104Z,1.70
2018-05-24T02:02:47.703Z,1.62
2018-05-24T02:05:15.376Z,1.83
2018-05-24T02:07:42.958Z,1.70
2018-05-24T02:10:10.568Z,1.80
2018-05-24T02:12:38.222Z,1.87
2018-05-24T02:15:05.828Z,1.90
2018-05-24T02:17:34.210Z,1.70
2018-05-24T02:20:02.597Z,1.80
2018-05-24T02:22:30.380Z,1.83
2018-05-24T02:24:58.016Z,1.98
2018-05-24T02:27:26.703Z,1.90
2018-05-24T02:29:54.299Z,1.80
2018-05-24T02:32:21.891Z,1.55
2018-05-24T02:34:49.538Z,1.77
2018-05-24T02:37:17.157Z,1.90
2018-05-24T02:39:44.835Z,1.90
2018-05-24T02:42:12.437Z,1.90
2018-05-24T02:44:40.116Z,2.00
2018-05-24T02:47:07.760Z,1.73
2018-05-24T02:49:35.387Z,1.60
2018-05-24T02:52:02.979Z,1.83
2018-05-24T02:54:31.345Z,1.75
2018-05-24T02:56:58.966Z,1.73
2018-05-24T02:59:26.594Z,1.90
2018-05-24T03:01:54.961Z,1.85
2018-05-24T03:04:23.365Z,1.90
2018-05-24T03:06:51.762Z,2.10
2018-05-24T03:09:19.405Z,2.03
2018-05-24T03:11:47.895Z,1.95
2018-05-24T03:14:16.336Z,1.83
2018-05-24T03:16:43.983Z,1.80
2018-05-24T03:19:11.939Z,1.80
2018-05-24T03:21:39.540Z,1.80
2018-05-24T03:24:07.142Z,1.73
2018-05-24T03:26:34.763Z,1.70
2018-05-24T03:29:02.400Z,1.75
2018-05-24T03:31:30.049Z,1.73
2018-05-24T03:33:58.507Z,1.90
2018-05-24T03:36:26.133Z,1.75
2018-05-24T03:38:53.728Z,2.07
2018-05-24T03:41:21.319Z,1.80
2018-05-24T03:43:48.947Z,1.90
2018-05-24T03:46:16.535Z,1.80
2018-05-24T03:48:44.159Z,1.98
2018-05-24T03:51:11.756Z,2.00
2018-05-24T03:53:39.339Z,1.95
2018-05-24T03:56:06.959Z,1.98
2018-05-24T03:58:34.535Z,2.00
2018-05-24T04:01:14.104Z,1.90
2018-05-24T04:03:47.518Z,1.95
2018-05-24T04:06:15.143Z,2.00
2018-05-24T04:08:42.733Z,1.87
2018-05-24T04:11:10.404Z,1.95
2018-05-24T04:13:38.005Z,2.10
2018-05-24T04:16:05.625Z,2.00
2018-05-24T04:18:33.262Z,1.95
2018-05-24T04:21:00.845Z,1.80
2018-05-24T04:23:28.447Z,1.87
2018-05-24T04:25:56.859Z,1.87
2018-05-24T04:28:24.748Z,1.80
2018-05-24T04:30:52.366Z,2.00
2018-05-24T04:33:19.951Z,1.67
2018-05-24T04:35:47.608Z,1.60
2018-05-24T04:38:16.039Z,1.70
2018-05-24T04:40:43.630Z,1.50
2018-05-24T04:43:11.282Z,1.70
2018-05-24T04:45:38.947Z,1.80
2018-05-24T04:48:06.558Z,1.70
2018-05-24T04:50:34.935Z,1.67
2018-05-24T04:53:02.572Z,1.50
2018-05-24T04:55:30.197Z,1.58
2018-05-24T04:57:57.940Z,1.58
2018-05-24T05:00:26.325Z,1.52
2018-05-24T05:02:54.676Z,1.50
2018-05-24T05:05:22.263Z,1.60
2018-05-24T05:07:50.273Z,1.67
2018-05-24T05:10:17.888Z,1.60
2018-05-24T05:12:45.466Z,1.65
2018-05-24T05:15:13.065Z,1.52
2018-05-24T05:17:40.675Z,1.60
2018-05-24T05:20:08.693Z,1.50
2018-05-24T05:22:37.049Z,1.62
2018-05-24T05:25:04.645Z,1.60
2018-05-24T05:27:33.057Z,1.50
2018-05-24T05:30:00.648Z,1.37
2018-05-24T05:32:28.276Z,1.55
2018-05-24T05:34:55.861Z,1.65
2018-05-24T05:37:23.477Z,1.50
2018-05-24T05:39:51.246Z,1.60
2018-05-24T05:42:18.849Z,1.60
2018-05-24T05:44:46.509Z,1.50
2018-05-24T05:47:14.070Z,1.50
2018-05-24T05:49:41.660Z,1.45
2018-05-24T05:52:09.276Z,1.52
2018-05-24T05:54:36.892Z,1.45
2018-05-24T05:57:04.544Z,1.67
2018-05-24T05:59:32.191Z,1.70
2018-05-24T06:02:00.625Z,1.67
2018-05-24T06:04:28.955Z,1.60
2018-05-24T06:06:57.310Z,1.50
2018-05-24T06:09:24.944Z,1.50
2018-05-24T06:11:52.574Z,1.65
2018-05-24T06:14:21.147Z,1.60
2018-05-24T06:16:49.535Z,1.50
2018-05-24T06:19:17.895Z,1.50
2018-05-24T06:21:45.549Z,1.40
2018-05-24T06:24:13.139Z,1.40
2018-05-24T06:26:40.787Z,1.70
2018-05-24T06:29:08.372Z,1.60
2018-05-24T06:31:35.958Z,1.70
2018-05-24T06:34:04.350Z,1.65
2018-05-24T06:36:31.937Z,1.33
2018-05-24T06:38:59.535Z,1.80
2018-05-24T06:41:27.164Z,1.45
2018-05-24T06:43:54.779Z,1.70
2018-05-24T06:46:22.471Z,1.40
2018-05-24T06:48:50.044Z,1.60
2018-05-24T06:51:17.632Z,1.20
2018-05-24T06:53:45.319Z,1.55
2018-05-24T06:56:12.879Z,1.25
2018-05-24T06:58:40.966Z,1.67
2018-05-24T07:01:08.609Z,1.50
2018-05-24T07:03:36.940Z,1.40
2018-05-24T07:06:05.335Z,1.52
2018-05-24T07:08:33.723Z,1.70
2018-05-24T07:11:02.136Z,1.48
2018-05-24T07:13:30.512Z,1.50
2018-05-24T07:15:58.475Z,1.30
2018-05-24T07:18:26.092Z,1.23
2018-05-24T07:20:53.679Z,1.30
2018-05-24T07:23:21.299Z,1.60
2018-05-24T07:25:48.895Z,1.40
2018-05-24T07:28:16.541Z,1.37
2018-05-24T07:30:44.203Z,1.55
2018-05-24T07:33:11.779Z,1.30
2018-05-24T07:35:40.630Z,1.40
2018-05-24T07:38:08.228Z,1.30
2018-05-24T07:40:35.869Z,1.05
2018-05-24T07:43:03.461Z,0.90
2018-05-24T07:45:31.086Z,1.30
2018-05-24T07:47:59.443Z,1.30
2018-05-24T07:50:27.024Z,0.93
2018-05-24T07:52:55.403Z,1.10
2018-05-24T07:55:23.043Z,1.10
2018-05-24T07:57:50.658Z,0.93
2018-05-24T08:00:18.250Z,1.13
2018-05-24T08:02:45.831Z,1.17
2018-05-24T08:05:13.541Z,1.12
2018-05-24T08:07:41.896Z,1.00
2018-05-24T08:10:09.518Z,1.00
2018-05-24T08:12:37.112Z,1.23
2018-05-24T08:15:04.974Z,1.00
2018-05-24T08:17:32.598Z,1.10
2018-05-24T08:20:00.953Z,1.00
2018-05-24T08:22:28.597Z,0.90
2018-05-24T08:24:56.199Z,1.00
2018-05-24T08:27:23.825Z,1.10
2018-05-24T08:29:51.408Z,0.90
2018-05-24T08:32:19.048Z,1.00
2018-05-24T08:34:46.659Z,0.82
2018-05-24T08:37:14.275Z,0.90
2018-05-24T08:39:41.947Z,0.80
2018-05-24T08:42:09.584Z,0.90
2018-05-24T08:44:37.984Z,0.90
2018-05-24T08:47:05.572Z,0.98
2018-05-24T08:49:33.176Z,0.80
2018-05-24T08:52:00.831Z,0.90
2018-05-24T08:54:28.432Z,0.90
2018-05-24T08:56:56.805Z,0.90
2018-05-24T08:59:25.945Z,1.00
2018-05-24T09:01:53.536Z,0.90
2018-05-24T09:04:21.128Z,0.85
2018-05-24T09:06:48.769Z,0.80
2018-05-24T09:09:16.353Z,0.90
2018-05-24T09:11:43.970Z,0.90
2018-05-24T09:14:11.569Z,0.90
2018-05-24T09:16:39.211Z,0.70
2018-05-24T09:19:06.857Z,0.77
2018-05-24T09:21:34.448Z,0.90
2018-05-24T09:24:02.037Z,0.70
2018-05-24T09:26:29.671Z,0.73
2018-05-24T09:28:57.256Z,0.60
2018-05-24T09:31:24.878Z,0.60
2018-05-24T09:33:52.503Z,0.82
2018-05-24T09:36:20.153Z,0.55
2018-05-24T09:38:47.739Z,0.60
2018-05-24T09:41:16.223Z,0.70
2018-05-24T09:43:43.861Z,0.60
2018-05-24T09:46:11.440Z,0.60
2018-05-24T09:48:39.045Z,0.60
2018-05-24T09:51:07.444Z,0.60
2018-05-24T09:53:35.051Z,0.70
2018-05-24T09:56:02.643Z,0.80
2018-05-24T09:58:30.427Z,0.70
2018-05-24T10:00:58.797Z,0.52
2018-05-24T10:03:26.396Z,0.60
2018-05-24T10:05:54.799Z,0.70
2018-05-24T10:08:22.437Z,0.60
2018-05-24T10:10:50.819Z,0.60
2018-05-24T10:13:19.168Z,0.60
2018-05-24T10:15:46.787Z,0.70
2018-05-24T10:18:14.384Z,0.60
2018-05-24T10:20:42.010Z,0.60
2018-05-24T10:23:09.862Z,0.60
2018-05-24T10:25:38.230Z,0.77
2018-05-24T10:28:06.609Z,0.70
2018-05-24T10:30:34.233Z,0.60
2018-05-24T10:33:01.839Z,0.57
2018-05-24T10:35:29.603Z,0.52
2018-05-24T10:37:58.007Z,0.70
2018-05-24T10:40:26.368Z,0.60
2018-05-24T10:42:54.007Z,0.60
2018-05-24T10:45:21.588Z,0.77
2018-05-24T10:47:49.185Z,0.70
2018-05-24T10:50:16.809Z,0.70
2018-05-24T10:52:44.403Z,0.82
2018-05-24T10:55:12.016Z,0.60
2018-05-24T10:57:39.653Z,0.70
2018-05-24T11:00:08.020Z,0.60
2018-05-24T11:02:35.656Z,0.70
2018-05-24T11:05:03.255Z,0.60
2018-05-24T11:07:30.837Z,0.73
2018-05-24T11:09:59.242Z,0.68
2018-05-24T11:12:26.832Z,0.70
2018-05-24T11:14:54.468Z,0.70
2018-05-24T11:17:22.100Z,0.60
2018-05-24T11:19:49.698Z,0.60
2018-05-24T11:22:18.103Z,0.63
2018-05-24T11:24:45.767Z,0.80
2018-05-24T11:27:13.366Z,0.60
2018-05-24T11:29:40.980Z,0.70
2018-05-24T11:32:08.635Z,0.60
2018-05-24T11:34:37.047Z,0.52
2018-05-24T11:37:04.748Z,0.57
2018-05-24T11:39:33.082Z,0.60
2018-05-24T11:42:00.682Z,0.57
2018-05-24T11:44:28.282Z,0.70
2018-05-24T11:46:55.911Z,0.70
2018-05-24T11:49:23.523Z,0.60
2018-05-24T11:51:51.983Z,0.70
2018-05-24T11:54:19.552Z,0.60
2018-05-24T11:56:47.208Z,0.60
2018-05-24T11:59:14.815Z,0.60
2018-05-24T12:01:42.527Z,0.50
2018-05-24T12:04:10.129Z,0.60
2018-05-24T12:06:37.730Z,0.70
2018-05-24T12:09:05.389Z,0.60
2018-05-24T12:11:33.742Z,0.77
2018-05-24T12:14:01.349Z,0.60
2018-05-24T12:16:29.005Z,0.57
2018-05-24T12:18:57.359Z,0.60
2018-05-24T12:21:24.968Z,0.40
2018-05-24T12:23:52.838Z,0.50
2018-05-24T12:26:20.423Z,0.40
2018-05-24T12:28:48.042Z,0.60
2018-05-24T12:31:15.647Z,0.50
2018-05-24T12:33:43.504Z,0.68
2018-05-24T12:36:11.094Z,0.50
2018-05-24T12:38:38.700Z,0.45
2018-05-24T12:41:06.313Z,0.60
2018-05-24T12:43:34.061Z,0.70
2018-05-24T12:46:02.408Z,0.50
2018-05-24T12:48:29.987Z,0.55
2018-05-24T12:50:57.605Z,0.57
2018-05-24T12:53:25.194Z,0.60
2018-05-24T12:55:52.778Z,0.68
2018-05-24T12:58:20.412Z,0.50
2018-05-24T13:00:48.043Z,0.70
2018-05-24T13:03:16.421Z,0.50
2018-05-24T13:05:44.040Z,0.52
2018-05-24T13:08:11.653Z,0.52
2018-05-24T13:10:40.005Z,0.57
2018-05-24T13:13:07.601Z,0.50
2018-05-24T13:15:35.976Z,0.60
2018-05-24T13:18:04.339Z,0.68
2018-05-24T13:20:32.382Z,0.50
2018-05-24T13:23:00.036Z,0.50
2018-05-24T13:25:27.647Z,0.60
2018-05-24T13:27:55.308Z,0.60
2018-05-24T13:30:22.887Z,0.70
2018-05-24T13:32:50.478Z,0.60
2018-05-24T13:35:18.854Z,0.57
2018-05-24T13:37:46.456Z,0.62
2018-05-24T13:40:14.088Z,0.70
2018-05-24T13:42:42.465Z,0.60
2018-05-24T13:45:10.287Z,0.60
2018-05-24T13:47:37.874Z,0.62
2018-05-24T13:50:06.255Z,0.68
2018-05-24T13:52:34.654Z,0.60
2018-05-24T13:55:03.033Z,0.62
2018-05-24T13:57:43.376Z,0.60
2018-05-24T14:00:10.960Z,0.70
2018-05-24T14:02:39.305Z,0.62
2018-05-24T14:05:06.948Z,0.73
2018-05-24T14:07:34.562Z,0.70
2018-05-24T14:10:02.172Z,0.70
2018-05-24T14:12:29.768Z,0.80
2018-05-24T14:14:57.404Z,0.80
2018-05-24T14:17:25.048Z,0.70
2018-05-24T14:19:53.410Z,0.55
2018-05-24T14:22:21.772Z,0.70
2018-05-24T14:24:49.387Z,0.83
2018-05-24T14:27:16.970Z,0.70
2018-05-24T14:29:44.575Z,0.68
2018-05-24T14:32:12.198Z,0.62
2018-05-24T14:34:39.790Z,0.70
2018-05-24T14:37:07.383Z,0.80
2018-05-24T14:39:35.056Z,0.55
2018-05-24T14:42:03.406Z,0.70
2018-05-24T14:44:31.028Z,0.80
2018-05-24T14:46:58.612Z,0.70
2018-05-24T14:49:26.352Z,0.62
2018-05-24T14:51:54.716Z,0.82
2018-05-24T14:54:23.704Z,0.70
2018-05-24T14:56:51.395Z,0.57
2018-05-24T14:59:19.775Z,0.70
2018-05-24T15:01:48.170Z,0.70
2018-05-24T15:04:15.810Z,0.70
2018-05-24T15:06:43.454Z,0.80
2018-05-24T15:09:11.097Z,0.70
2018-05-24T15:11:38.747Z,0.70
2018-05-24T15:14:07.680Z,0.85
2018-05-24T15:16:35.273Z,0.75
2018-05-24T15:19:02.994Z,0.70
2018-05-24T15:21:30.639Z,0.60
2018-05-24T15:23:58.275Z,0.98
2018-05-24T15:26:25.869Z,0.80
2018-05-24T15:28:53.846Z,0.60
2018-05-24T15:31:21.478Z,0.70
2018-05-24T15:33:49.067Z,0.77
2018-05-24T15:36:17.459Z,0.80
2018-05-24T15:38:45.075Z,0.80
2018-05-24T15:41:12.713Z,0.70
2018-05-24T15:43:40.368Z,0.80
2018-05-24T15:46:08.726Z,0.90
2018-05-24T15:48:37.396Z,0.80
2018-05-24T15:51:05.007Z,0.80
2018-05-24T15:53:32.623Z,0.70
2018-05-24T15:56:00.205Z,0.80
2018-05-24T15:58:28.591Z,0.70
2018-05-24T16:00:56.943Z,1.10
2018-05-24T16:03:24.583Z,0.80
2018-05-24T16:05:52.224Z,0.90
2018-05-24T16:08:19.843Z,0.90
2018-05-24T16:10:47.419Z,1.15
2018-05-24T16:13:15.048Z,1.00
2018-05-24T16:15:42.720Z,0.90
2018-05-24T16:18:10.314Z,1.08
2018-05-24T16:20:37.952Z,1.00
2018-05-24T16:23:05.549Z,1.10
2018-05-24T16:25:33.176Z,1.00
2018-05-24T16:28:01.104Z,1.02
2018-05-24T16:30:29.506Z,0.82
2018-05-24T16:32:57.960Z,0.88
2018-05-24T16:35:25.620Z,1.00
2018-05-24T16:37:53.256Z,1.00
2018-05-24T16:40:20.885Z,1.00
2018-05-24T16:42:49.305Z,0.90
2018-05-24T16:45:16.919Z,1.00
2018-05-24T16:47:44.506Z,0.98
2018-05-24T16:50:12.932Z,1.07
2018-05-24T16:52:40.513Z,1.13
2018-05-24T16:55:08.116Z,1.17
2018-05-24T16:57:36.519Z,1.12
2018-05-24T17:00:04.855Z,1.12
2018-05-24T17:02:32.499Z,1.23
2018-05-24T17:05:00.152Z,1.10
2018-05-24T17:07:27.782Z,0.93
2018-05-24T17:09:56.167Z,0.93
2018-05-24T17:12:24.540Z,1.15
2018-05-24T17:14:52.931Z,1.05
2018-05-24T17:17:21.312Z,1.00
2018-05-24T17:19:49.707Z,1.10
2018-05-24T17:22:18.116Z,1.00
2018-05-24T17:24:45.711Z,0.95
2018-05-24T17:27:13.327Z,1.20
2018-05-24T17:29:40.946Z,1.00
2018-05-24T17:32:08.599Z,1.10
2018-05-24T17:34:36.259Z,1.17
2018-05-24T17:37:03.891Z,1.10
2018-05-24T17:39:31.629Z,1.10
2018-05-24T17:41:59.246Z,1.00
2018-05-24T17:44:26.878Z,1.00
2018-05-24T17:46:55.246Z,1.08
2018-05-24T17:49:22.915Z,1.20
2018-05-24T17:51:50.573Z,1.12
2018-05-24T17:54:18.169Z,1.30
2018-05-24T17:56:46.571Z,1.15
2018-05-24T17:59:14.183Z,1.20
2018-05-24T18:01:41.794Z,1.12
2018-05-24T18:04:09.425Z,0.90
2018-05-24T18:06:37.829Z,1.10
2018-05-24T18:09:06.240Z,1.10
2018-05-24T18:11:33.859Z,1.15
2018-05-24T18:14:01.456Z,1.10
2018-05-24T18:16:29.859Z,1.30
2018-05-24T18:18:57.442Z,1.40
2018-05-24T18:21:25.027Z,1.10
2018-05-24T18:23:52.668Z,1.20
2018-05-24T18:26:20.253Z,1.27
2018-05-24T18:28:48.063Z,1.40
2018-05-24T18:31:15.801Z,1.20
2018-05-24T18:33:43.466Z,1.50
2018-05-24T18:36:11.125Z,1.40
2018-05-24T18:38:38.785Z,1.27
2018-05-24T18:41:06.441Z,1.02
2018-05-24T18:43:34.367Z,1.27
2018-05-24T18:46:02.744Z,1.25
2018-05-24T18:48:30.338Z,1.25
2018-05-24T18:50:58.000Z,1.30
2018-05-24T18:53:26.392Z,1.33
2018-05-24T18:55:54.080Z,1.10
2018-05-24T18:58:21.701Z,1.10
2018-05-24T19:00:49.440Z,1.43
2018-05-24T19:03:17.069Z,0.95
2018-05-24T19:05:45.844Z,1.05
2018-05-24T19:08:14.258Z,1.20
2018-05-24T19:10:41.871Z,1.30
2018-05-24T19:13:09.483Z,1.17
2018-05-24T19:15:37.854Z,1.00
2018-05-24T19:18:05.670Z,1.20
2018-05-24T19:20:33.311Z,1.20
2018-05-24T19:23:01.720Z,1.13
2018-05-24T19:25:29.400Z,1.48
2018-05-24T19:27:57.025Z,1.30
2018-05-24T19:30:25.364Z,1.13
2018-05-24T19:32:53.189Z,1.20
2018-05-24T19:35:20.791Z,1.30
2018-05-24T19:37:48.791Z,1.40
2018-05-24T19:40:16.416Z,1.30
2018-05-24T19:42:44.009Z,1.37
2018-05-24T19:45:12.871Z,1.10
2018-05-24T19:47:41.050Z,1.35
2018-05-24T19:50:08.639Z,1.35
2018-05-24T19:52:36.327Z,1.23
2018-05-24T19:55:04.867Z,1.45
2018-05-24T19:57:32.457Z,1.30
2018-05-24T20:00:00.174Z,1.30
2018-05-24T20:02:28.553Z,1.20
2018-05-24T20:04:56.207Z,1.20
2018-05-24T20:07:23.831Z,1.40
2018-05-24T20:09:51.443Z,1.27
2018-05-24T20:12:19.024Z,1.20
2018-05-24T20:14:47.368Z,1.23
2018-05-24T20:17:14.986Z,1.40
2018-05-24T20:19:42.600Z,1.20
2018-05-24T20:22:10.216Z,1.30
2018-05-24T20:24:38.605Z,1.20
2018-05-24T20:27:06.189Z,1.27
2018-05-24T20:29:33.807Z,1.60
2018-05-24T20:32:02.209Z,1.30
2018-05-24T20:34:29.835Z,1.30
2018-05-24T20:36:57.458Z,1.10
2018-05-24T20:39:25.044Z,1.37
2018-05-24T20:41:52.655Z,1.30
2018-05-24T20:44:21.016Z,1.50
2018-05-24T20:46:48.620Z,1.25
2018-05-24T20:49:16.226Z,1.30
2018-05-24T20:51:43.814Z,1.60
2018-05-24T20:54:11.431Z,1.42
2018-05-24T20:56:39.057Z,1.30
2018-05-24T20:59:06.835Z,1.50
2018-05-24T21:01:35.231Z,1.48
2018-05-24T21:04:03.598Z,1.50
2018-05-24T21:06:31.975Z,1.35
2018-05-24T21:08:59.571Z,1.40
2018-05-24T21:11:27.170Z,1.48
2018-05-24T21:13:54.795Z,1.30
2018-05-24T21:16:22.715Z,1.50
2018-05-24T21:18:50.335Z,1.45
2018-05-24T21:21:18.681Z,1.58
2018-05-24T21:23:46.293Z,1.40
2018-05-24T21:26:13.915Z,1.40
2018-05-24T21:28:41.510Z,1.35
2018-05-24T21:31:09.916Z,1.50
2018-05-24T21:33:37.504Z,1.33
2018-05-24T21:36:05.134Z,1.30
2018-05-24T21:38:33.474Z,1.30
2018-05-24T21:41:01.094Z,1.40
2018-05-24T21:43:28.703Z,1.40
2018-05-24T21:45:56.336Z,1.50
2018-05-24T21:48:23.923Z,1.48
2018-05-24T21:50:51.532Z,1.60
2018-05-24T21:53:19.928Z,1.50
2018-05-24T21:55:48.268Z,1.60
2018-05-24T21:58:15.858Z,1.48
2018-05-24T22:00:49.233Z,1.75
2018-05-24T22:03:16.826Z,1.45
2018-05-24T22:05:45.279Z,1.33
2018-05-24T22:08:12.872Z,1.45
2018-05-24T22:10:41.275Z,1.70
2018-05-24T22:13:09.615Z,1.50
2018-05-24T22:15:38.692Z,1.70
2018-05-24T22:18:06.309Z,1.70
2018-05-24T22:20:34.720Z,1.80
2018-05-24T22:23:02.336Z,1.52
2018-05-24T22:25:29.975Z,1.90
2018-05-24T22:27:57.559Z,1.60
2018-05-24T22:30:25.196Z,1.63
2018-05-24T22:32:52.833Z,1.60
2018-05-24T22:35:21.236Z,1.70
2018-05-24T22:37:48.829Z,1.75
2018-05-24T22:40:16.745Z,1.80
2018-05-24T22:42:44.357Z,1.90
2018-05-24T22:45:11.972Z,1.85
2018-05-24T22:47:40.360Z,2.00
2018-05-24T22:50:08.767Z,1.80
2018-05-24T22:52:36.378Z,1.80
2018-05-24T22:55:03.996Z,2.08
2018-05-24T22:57:31.613Z,1.60
2018-05-24T22:59:59.216Z,2.00
2018-05-24T23:02:27.572Z,1.77
2018-05-24T23:04:55.190Z,2.00
2018-05-24T23:07:22.827Z,2.20
2018-05-24T23:09:50.466Z,2.05
2018-05-24T23:12:18.121Z,2.00
2018-05-24T23:14:45.699Z,1.70
2018-05-24T23:17:13.338Z,2.08
2018-05-24T23:19:40.927Z,2.10
2018-05-24T23:22:08.513Z,1.87
2018-05-24T23:24:36.903Z,2.12
2018-05-24T23:27:04.520Z,1.80
2018-05-24T23:29:32.117Z,1.98
2018-05-24T23:31:59.796Z,2.10
2018-05-24T23:34:27.416Z,1.90
2018-05-24T23:36:54.991Z,2.17
2018-05-24T23:39:22.965Z,1.90
2018-05-24T23:41:50.588Z,2.03
2018-05-24T23:44:18.947Z,1.80
2018-05-24T23:46:46.562Z,1.80
2018-05-24T23:49:14.180Z,1.92
2018-05-24T23:51:42.543Z,2.00
2018-05-24T23:54:10.154Z,2.10
2018-05-24T23:56:37.768Z,2.00
2018-05-24T23:59:05.372Z,1.90
